Hoopeston, Illinois
Current Conditions -  °F | °C
As of 12:15 PM on Thursday 29 Jan 2015 (Local Time) from KDNV Reporting Station
Haze Haze  
Wind Chill: 24°   Ceiling: 1300
Heat Index: 34°   Visibility: 5mi
Dew Point: 31°   Wind: 15mph
Humidity: 87%   Direction: 300°WNW
Pressure: 29.94"   Gusts: 23mph
Location:  40.47°N, 87.67°W
Report Text: KDNV 291815Z AUTO 30013G20KT 5SM BR OVC013 01/M01 A2994 RMK AO2 T00121007
Loading
Personal Weather Stations






























Interactive Weather Map New forecast layout! Learn more

10-Day Weather Forecast

Advertisements
Track Severe Weather on mobile